createdAt,value
2018-07-20T00:01:30.274Z,25.45
2018-07-20T00:03:58.683Z,27.58
2018-07-20T00:06:27.051Z,26.15
2018-07-20T00:08:54.985Z,27.22
2018-07-20T00:11:23.036Z,27.62
2018-07-20T00:13:51.674Z,29.23
2018-07-20T00:16:19.950Z,28.35
2018-07-20T00:18:47.899Z,29.72
2018-07-20T00:21:16.103Z,27.52
2018-07-20T00:23:44.473Z,26.82
2018-07-20T00:26:12.878Z,27.37
2018-07-20T00:28:41.486Z,26.30
2018-07-20T00:31:09.522Z,29.30
2018-07-20T00:33:37.680Z,29.50
2018-07-20T00:36:05.554Z,31.68
2018-07-20T00:38:33.760Z,30.75
2018-07-20T00:41:01.779Z,30.30
2018-07-20T00:43:29.830Z,32.40
2018-07-20T00:45:57.942Z,29.12
2018-07-20T00:48:26.097Z,29.18
2018-07-20T00:50:54.809Z,26.85
2018-07-20T00:53:22.738Z,27.37
2018-07-20T00:55:50.833Z,26.97
2018-07-20T00:58:18.957Z,27.48
2018-07-20T01:00:47.063Z,29.07
2018-07-20T01:03:14.881Z,26.87
2018-07-20T01:05:43.128Z,25.08
2018-07-20T01:08:11.660Z,26.50
2018-07-20T01:10:39.532Z,25.80
2018-07-20T01:13:08.077Z,26.73
2018-07-20T01:15:36.489Z,24.20
2018-07-20T01:18:04.862Z,25.05
2018-07-20T01:20:32.656Z,25.72
2018-07-20T01:23:01.136Z,26.07
2018-07-20T01:25:29.274Z,23.18
2018-07-20T01:27:57.358Z,25.15
2018-07-20T01:30:25.416Z,25.40
2018-07-20T01:32:53.448Z,25.12
2018-07-20T01:35:21.521Z,25.35
2018-07-20T01:37:49.619Z,24.98
2018-07-20T01:40:17.763Z,25.45
2018-07-20T01:42:46.013Z,25.80
2018-07-20T01:45:15.102Z,24.90
2018-07-20T01:47:43.458Z,26.25
2018-07-20T01:50:11.813Z,25.57
2018-07-20T01:52:39.901Z,24.40
2018-07-20T01:55:09.146Z,25.80
2018-07-20T01:57:37.347Z,26.10
2018-07-20T02:00:05.598Z,24.80
2018-07-20T02:02:33.685Z,24.20
2018-07-20T02:05:01.729Z,24.60
2018-07-20T02:07:29.758Z,23.63
2018-07-20T02:09:58.794Z,23.83
2018-07-20T02:12:27.010Z,24.27
2018-07-20T02:14:55.257Z,22.60
2018-07-20T02:17:23.332Z,24.23
2018-07-20T02:19:51.470Z,23.43
2018-07-20T02:22:19.769Z,24.87
2018-07-20T02:24:47.900Z,22.63
2018-07-20T02:27:15.937Z,22.45
2018-07-20T02:29:44.253Z,22.90
2018-07-20T02:32:12.377Z,23.97
2018-07-20T02:34:41.628Z,22.10
2018-07-20T02:37:09.862Z,21.37
2018-07-20T02:39:38.003Z,23.43
2018-07-20T02:42:06.251Z,22.47
2018-07-20T02:44:34.303Z,22.98
2018-07-20T02:47:02.459Z,23.90
2018-07-20T02:49:30.702Z,24.50
2018-07-20T02:51:58.874Z,22.87
2018-07-20T02:54:27.159Z,22.70
2018-07-20T02:56:55.349Z,24.10
2018-07-20T02:59:23.197Z,24.60
2018-07-20T03:01:51.430Z,22.98
2018-07-20T03:04:19.375Z,24.90
2018-07-20T03:06:47.531Z,26.33
2018-07-20T03:09:15.601Z,26.95
2018-07-20T03:11:44.023Z,25.77
2018-07-20T03:14:12.506Z,27.35
2018-07-20T03:16:40.951Z,28.60
2018-07-20T03:19:09.570Z,28.27
2018-07-20T03:21:37.842Z,28.07
2018-07-20T03:24:05.958Z,28.07
2018-07-20T03:26:34.354Z,27.82
2018-07-20T03:29:02.646Z,28.47
2018-07-20T03:31:30.761Z,27.95
2018-07-20T03:33:58.701Z,28.02
2018-07-20T03:36:26.886Z,27.55
2018-07-20T03:38:55.066Z,27.60
2018-07-20T03:41:23.394Z,28.23
2018-07-20T03:43:51.653Z,25.75
2018-07-20T03:46:19.766Z,27.67
2018-07-20T03:48:47.875Z,26.93
2018-07-20T03:51:16.878Z,25.40
2018-07-20T03:53:45.306Z,27.37
2018-07-20T03:56:13.566Z,26.57
2018-07-20T03:58:41.674Z,27.32
2018-07-20T04:01:09.736Z,25.72
2018-07-20T04:03:37.834Z,25.77
2018-07-20T04:06:06.162Z,25.70
2018-07-20T04:08:34.293Z,26.48
2018-07-20T04:11:02.647Z,23.55
2018-07-20T04:13:30.708Z,24.60
2018-07-20T04:15:58.843Z,24.80
2018-07-20T04:18:26.894Z,23.27
2018-07-20T04:20:55.273Z,24.73
2018-07-20T04:23:23.582Z,23.30
2018-07-20T04:25:51.529Z,23.73
2018-07-20T04:28:19.577Z,24.13
2018-07-20T04:30:47.786Z,23.80
2018-07-20T04:33:15.966Z,24.60
2018-07-20T04:35:43.866Z,24.63
2018-07-20T04:38:11.986Z,23.33
2018-07-20T04:40:40.150Z,23.90
2018-07-20T04:43:08.515Z,24.43
2018-07-20T04:45:36.484Z,25.27
2018-07-20T04:48:04.709Z,24.17
2018-07-20T04:50:33.074Z,23.00
2018-07-20T04:53:01.398Z,23.60
2018-07-20T04:55:29.770Z,23.90
2018-07-20T04:57:57.815Z,22.90
2018-07-20T05:00:25.802Z,22.80
2018-07-20T05:02:54.012Z,22.87
2018-07-20T05:05:22.456Z,24.87
2018-07-20T05:07:51.339Z,23.97
2018-07-20T05:10:19.508Z,24.80
2018-07-20T05:12:47.821Z,23.47
2018-07-20T05:15:15.882Z,23.77
2018-07-20T05:17:43.851Z,23.57
2018-07-20T05:20:11.962Z,24.50
2018-07-20T05:22:40.094Z,24.47
2018-07-20T05:25:08.195Z,22.97
2018-07-20T05:27:36.529Z,21.80
2018-07-20T05:30:05.343Z,22.10
2018-07-20T05:32:33.596Z,22.13
2018-07-20T05:35:01.876Z,22.33
2018-07-20T05:37:30.003Z,21.70
2018-07-20T05:39:58.130Z,21.67
2018-07-20T05:42:26.219Z,21.67
2018-07-20T05:44:54.588Z,21.80
2018-07-20T05:47:22.926Z,21.70
2018-07-20T05:49:51.012Z,21.73
2018-07-20T05:52:19.138Z,20.10
2018-07-20T05:54:47.412Z,21.43
2018-07-20T05:57:15.821Z,20.27
2018-07-20T05:59:43.796Z,19.77
2018-07-20T06:02:12.322Z,20.10
2018-07-20T06:04:40.767Z,19.90
2018-07-20T06:07:08.991Z,19.50
2018-07-20T06:09:37.157Z,20.23
2018-07-20T06:12:05.746Z,19.83
2018-07-20T06:14:34.074Z,20.83
2018-07-20T06:17:02.302Z,20.00
2018-07-20T06:19:30.691Z,18.83
2018-07-20T06:21:59.026Z,21.83
2018-07-20T06:24:26.948Z,19.60
2018-07-20T06:26:55.196Z,19.30
2018-07-20T06:29:23.535Z,19.43
2018-07-20T06:31:51.656Z,19.03
2018-07-20T06:34:19.514Z,17.90
2018-07-20T06:36:47.461Z,18.60
2018-07-20T06:39:22.519Z,19.20
2018-07-20T06:41:50.714Z,17.90
2018-07-20T06:44:19.032Z,18.10
2018-07-20T06:46:47.093Z,17.83
2018-07-20T06:49:15.147Z,17.27
2018-07-20T06:51:43.254Z,17.90
2018-07-20T06:54:11.285Z,16.87
2018-07-20T06:56:40.639Z,16.70
2018-07-20T06:59:09.002Z,17.07
2018-07-20T07:01:37.027Z,16.73
2018-07-20T07:04:05.089Z,16.10
2018-07-20T07:06:32.946Z,17.03
2018-07-20T07:09:01.384Z,17.80
2018-07-20T07:11:29.277Z,17.30
2018-07-20T07:13:57.401Z,16.47
2018-07-20T07:16:25.469Z,17.00
2018-07-20T07:18:53.567Z,16.37
2018-07-20T07:21:21.910Z,16.83
2018-07-20T07:23:49.962Z,16.77
2018-07-20T07:26:18.053Z,16.17
2018-07-20T07:28:46.235Z,15.53
2018-07-20T07:31:14.183Z,15.87
2018-07-20T07:33:42.753Z,15.70
2018-07-20T07:36:10.925Z,16.47
2018-07-20T07:38:38.988Z,15.20
2018-07-20T07:41:07.818Z,15.20
2018-07-20T07:43:36.209Z,14.57
2018-07-20T07:46:04.544Z,15.83
2018-07-20T07:48:32.541Z,14.83
2018-07-20T07:51:00.485Z,14.83
2018-07-20T07:53:28.742Z,14.17
2018-07-20T07:55:57.097Z,14.90
2018-07-20T07:58:25.345Z,14.20
2018-07-20T08:00:53.501Z,14.00
2018-07-20T08:03:22.043Z,14.30
2018-07-20T08:05:50.974Z,14.00
2018-07-20T08:08:19.428Z,13.50
2018-07-20T08:11:50.703Z,13.57
2018-07-20T08:14:18.860Z,13.17
2018-07-20T08:16:47.390Z,12.40
2018-07-20T08:19:15.717Z,11.23
2018-07-20T08:21:44.258Z,11.70
2018-07-20T08:24:12.930Z,12.27
2018-07-20T08:26:41.644Z,12.13
2018-07-20T08:29:10.313Z,12.90
2018-07-20T08:31:38.634Z,11.63
2018-07-20T08:34:06.650Z,12.60
2018-07-20T08:36:34.593Z,12.77
2018-07-20T08:39:03.006Z,13.47
2018-07-20T08:41:31.214Z,13.20
2018-07-20T08:43:59.545Z,12.83
2018-07-20T08:46:27.610Z,12.90
2018-07-20T08:48:56.659Z,12.83
2018-07-20T08:51:24.981Z,13.30
2018-07-20T08:53:52.955Z,11.97
2018-07-20T08:56:21.231Z,13.10
2018-07-20T08:58:49.110Z,12.87
2018-07-20T09:01:18.056Z,12.47
2018-07-20T09:03:46.137Z,11.60
2018-07-20T09:06:14.325Z,10.53
2018-07-20T09:08:42.438Z,11.20
2018-07-20T09:11:11.487Z,11.50
2018-07-20T09:13:39.910Z,11.17
2018-07-20T09:16:07.790Z,12.83
2018-07-20T09:18:36.024Z,11.13
2018-07-20T09:21:04.805Z,10.60
2018-07-20T09:23:33.665Z,10.67
2018-07-20T09:26:01.861Z,11.00
2018-07-20T09:28:30.776Z,10.73
2018-07-20T09:30:59.421Z,11.40
2018-07-20T09:33:28.130Z,11.13
2018-07-20T09:35:56.890Z,10.97
2018-07-20T09:38:25.276Z,10.80
2018-07-20T09:40:53.389Z,10.87
2018-07-20T09:43:21.589Z,10.30
2018-07-20T09:45:49.683Z,11.10
2018-07-20T09:48:19.042Z,10.80
2018-07-20T09:50:47.301Z,10.23
2018-07-20T09:53:15.253Z,9.53
2018-07-20T09:55:43.345Z,10.80
2018-07-20T09:58:11.675Z,11.00
2018-07-20T10:00:45.135Z,10.30
2018-07-20T10:03:13.244Z,9.40
2018-07-20T10:05:41.031Z,10.00
2018-07-20T10:08:08.829Z,9.70
2018-07-20T10:10:37.996Z,9.47
2018-07-20T10:13:06.203Z,9.70
2018-07-20T10:15:34.542Z,10.10
2018-07-20T10:18:02.826Z,9.57
2018-07-20T10:20:30.833Z,9.90
2018-07-20T10:22:59.518Z,10.13
2018-07-20T10:25:27.724Z,9.60
2018-07-20T10:27:56.478Z,9.83
2018-07-20T10:30:24.770Z,8.97
2018-07-20T10:32:52.699Z,9.33
2018-07-20T10:35:20.695Z,9.23
2018-07-20T10:37:49.032Z,9.20
2018-07-20T10:40:17.367Z,9.00
2018-07-20T10:42:45.782Z,8.50
2018-07-20T10:45:13.821Z,9.20
2018-07-20T10:47:42.186Z,9.00
2018-07-20T10:50:10.494Z,9.53
2018-07-20T10:52:38.614Z,9.70
2018-07-20T10:55:06.652Z,10.67
2018-07-20T10:57:34.778Z,9.93
2018-07-20T11:00:02.970Z,9.90
2018-07-20T11:02:31.104Z,10.30
2018-07-20T11:04:59.414Z,9.57
2018-07-20T11:07:27.496Z,9.47
2018-07-20T11:09:55.785Z,9.60
2018-07-20T11:12:23.656Z,9.97
2018-07-20T11:14:51.866Z,9.87
2018-07-20T11:17:19.921Z,9.70
2018-07-20T11:19:48.339Z,9.93
2018-07-20T11:22:16.662Z,10.57
2018-07-20T11:24:45.125Z,9.40
2018-07-20T11:27:13.510Z,10.10
2018-07-20T11:29:41.844Z,9.90
2018-07-20T11:32:09.866Z,9.60
2018-07-20T11:34:37.976Z,9.67
2018-07-20T11:37:06.059Z,9.17
2018-07-20T11:39:34.138Z,9.63
2018-07-20T11:42:02.221Z,10.17
2018-07-20T11:44:30.582Z,8.10
2018-07-20T11:46:59.651Z,8.43
2018-07-20T11:49:27.584Z,9.27
2018-07-20T11:51:55.732Z,9.00
2018-07-20T11:54:24.053Z,9.07
2018-07-20T11:56:52.030Z,9.73
2018-07-20T11:59:20.250Z,9.10
2018-07-20T12:01:48.629Z,8.93
2018-07-20T12:04:16.569Z,8.57
2018-07-20T12:06:44.650Z,9.07
2018-07-20T12:09:12.932Z,9.47
2018-07-20T12:11:42.402Z,9.10
2018-07-20T12:14:10.542Z,10.33
2018-07-20T12:16:39.128Z,9.50
2018-07-20T12:19:07.338Z,9.17
2018-07-20T12:21:35.629Z,8.60
2018-07-20T12:24:03.650Z,9.77
2018-07-20T12:26:31.798Z,9.57
2018-07-20T12:28:59.829Z,9.03
2018-07-20T12:31:27.858Z,8.17
2018-07-20T12:33:56.064Z,8.43
2018-07-20T12:36:23.953Z,7.50
2018-07-20T12:38:52.101Z,8.50
2018-07-20T12:41:20.078Z,8.10
2018-07-20T12:43:48.262Z,9.00
2018-07-20T12:46:16.661Z,8.37
2018-07-20T12:48:44.718Z,7.43
2018-07-20T12:51:12.726Z,8.60
2018-07-20T12:53:40.809Z,9.13
2018-07-20T12:56:08.943Z,9.20
2018-07-20T12:58:37.077Z,9.70
2018-07-20T13:01:05.345Z,8.87
2018-07-20T13:03:33.496Z,9.13
2018-07-20T13:06:01.867Z,8.43
2018-07-20T13:08:30.280Z,9.63
2018-07-20T13:10:58.746Z,8.90
2018-07-20T13:13:26.921Z,9.73
2018-07-20T13:15:55.098Z,8.80
2018-07-20T13:18:23.422Z,8.43
2018-07-20T13:20:51.519Z,8.63
2018-07-20T13:23:19.867Z,10.10
2018-07-20T13:25:47.951Z,9.37
2018-07-20T13:28:16.091Z,9.43
2018-07-20T13:30:44.964Z,8.97
2018-07-20T13:33:13.429Z,9.83
2018-07-20T13:35:41.787Z,8.67
2018-07-20T13:38:10.270Z,9.27
2018-07-20T13:40:38.515Z,9.07
2018-07-20T13:43:06.706Z,9.10
2018-07-20T13:45:34.974Z,8.73
2018-07-20T13:48:03.055Z,9.50
2018-07-20T13:50:31.017Z,8.33
2018-07-20T13:52:59.311Z,9.77
2018-07-20T13:55:27.135Z,8.60
2018-07-20T13:57:55.310Z,9.50
2018-07-20T14:00:24.294Z,10.10
2018-07-20T14:02:52.347Z,9.00
2018-07-20T14:05:20.778Z,9.70
2018-07-20T14:07:48.811Z,9.70
2018-07-20T14:10:16.875Z,9.67
2018-07-20T14:12:44.990Z,10.07
2018-07-20T14:15:12.949Z,10.03
2018-07-20T14:17:40.918Z,10.20
2018-07-20T14:20:09.198Z,9.60
2018-07-20T14:22:37.226Z,10.80
2018-07-20T14:25:05.289Z,10.87
2018-07-20T14:27:33.080Z,11.27
2018-07-20T14:30:01.187Z,10.67
2018-07-20T14:32:29.795Z,11.20
2018-07-20T14:34:57.885Z,11.70
2018-07-20T14:37:26.014Z,11.73
2018-07-20T14:39:54.321Z,12.00
2018-07-20T14:42:23.431Z,12.00
2018-07-20T14:44:51.689Z,11.83
2018-07-20T14:47:19.913Z,11.47
2018-07-20T14:49:47.808Z,11.20
2018-07-20T14:52:16.019Z,10.67
2018-07-20T14:54:44.406Z,11.70
2018-07-20T14:57:12.230Z,12.00
2018-07-20T14:59:40.542Z,12.77
2018-07-20T15:02:09.206Z,11.60
2018-07-20T15:04:38.007Z,12.20
2018-07-20T15:07:06.586Z,11.37
2018-07-20T15:09:35.491Z,12.50
2018-07-20T15:12:03.939Z,11.63
2018-07-20T15:14:32.594Z,12.20
2018-07-20T15:17:01.345Z,12.80
2018-07-20T15:19:30.063Z,13.00
2018-07-20T15:21:58.808Z,12.33
2018-07-20T15:24:27.462Z,12.40
2018-07-20T15:26:56.077Z,12.23
2018-07-20T15:29:25.081Z,11.87
2018-07-20T15:31:54.912Z,11.30
2018-07-20T15:34:23.169Z,10.90
2018-07-20T15:36:52.699Z,10.70
2018-07-20T15:39:21.312Z,10.70
2018-07-20T15:41:50.082Z,11.10
2018-07-20T15:44:19.122Z,9.97
2018-07-20T15:46:47.933Z,9.50
2018-07-20T15:49:16.131Z,9.83
2018-07-20T15:54:13.719Z,10.17
2018-07-20T15:56:42.186Z,9.60
2018-07-20T15:59:10.586Z,8.97
2018-07-20T16:01:39.118Z,9.13
2018-07-20T16:04:07.593Z,9.17
2018-07-20T16:06:35.973Z,8.70
2018-07-20T16:09:05.806Z,9.33
2018-07-20T16:11:33.946Z,9.60
2018-07-20T16:14:01.825Z,8.57
2018-07-20T16:16:29.978Z,8.10
2018-07-20T16:18:58.350Z,8.90
2018-07-20T16:21:26.603Z,7.90
2018-07-20T16:23:54.911Z,8.23
2018-07-20T16:26:22.938Z,8.53
2018-07-20T16:28:50.773Z,7.77
2018-07-20T16:31:18.870Z,8.70
2018-07-20T16:33:47.167Z,8.60
2018-07-20T16:36:16.470Z,8.20
2018-07-20T16:38:44.486Z,8.20
2018-07-20T16:41:12.579Z,7.77
2018-07-20T16:43:40.746Z,8.00
2018-07-20T16:46:09.078Z,8.60
2018-07-20T16:48:37.058Z,8.77
2018-07-20T16:51:05.076Z,8.70
2018-07-20T16:53:33.251Z,7.37
2018-07-20T16:56:01.346Z,7.77
2018-07-20T16:58:29.801Z,9.03
2018-07-20T17:00:58.021Z,8.80
2018-07-20T17:03:26.279Z,8.93
2018-07-20T17:05:54.551Z,8.70
2018-07-20T17:08:22.918Z,9.70
2018-07-20T17:10:51.079Z,7.93
2018-07-20T17:13:19.309Z,8.60
2018-07-20T17:15:47.344Z,8.50
2018-07-20T17:18:15.366Z,7.93
2018-07-20T17:20:43.606Z,8.10
2018-07-20T17:23:11.952Z,9.70
2018-07-20T17:25:39.973Z,7.90
2018-07-20T17:28:07.986Z,8.70
2018-07-20T17:30:36.133Z,9.20
2018-07-20T17:33:04.142Z,8.87
2018-07-20T17:35:32.245Z,8.57
2018-07-20T17:38:00.441Z,9.27
2018-07-20T17:40:28.757Z,8.70
2018-07-20T17:42:56.767Z,9.77
2018-07-20T17:45:24.933Z,9.30
2018-07-20T17:47:53.253Z,9.00
2018-07-20T17:50:21.417Z,9.60
2018-07-20T17:52:49.673Z,9.30
2018-07-20T17:55:17.831Z,9.13
2018-07-20T17:57:46.185Z,9.43
2018-07-20T18:00:14.314Z,10.10
2018-07-20T18:02:42.584Z,9.77
2018-07-20T18:05:10.618Z,10.13
2018-07-20T18:07:38.770Z,9.30
2018-07-20T18:10:07.154Z,10.30
2018-07-20T18:12:35.246Z,10.63
2018-07-20T18:15:04.075Z,10.47
2018-07-20T18:17:32.614Z,10.03
2018-07-20T18:20:00.933Z,10.60
2018-07-20T18:22:29.249Z,10.43
2018-07-20T18:24:57.284Z,10.60
2018-07-20T18:27:25.464Z,9.90
2018-07-20T18:29:53.565Z,11.40
2018-07-20T18:32:21.615Z,11.00
2018-07-20T18:34:49.682Z,10.83
2018-07-20T18:37:18.123Z,11.47
2018-07-20T18:39:46.025Z,10.33
2018-07-20T18:42:15.233Z,11.13
2018-07-20T18:44:43.614Z,12.53
2018-07-20T18:47:11.914Z,12.53
2018-07-20T18:49:40.398Z,11.60
2018-07-20T18:52:08.625Z,10.87
2018-07-20T18:54:36.637Z,11.90
2018-07-20T18:57:04.867Z,12.40
2018-07-20T18:59:33.231Z,11.10
2018-07-20T19:02:01.114Z,11.70
2018-07-20T19:04:29.277Z,12.53
2018-07-20T19:06:57.411Z,12.50
2018-07-20T19:09:25.738Z,11.30
2018-07-20T19:11:53.842Z,11.30
2018-07-20T19:14:21.971Z,11.57
2018-07-20T19:16:51.074Z,12.50
2018-07-20T19:19:19.227Z,12.47
2018-07-20T19:21:47.378Z,12.17
2018-07-20T19:24:15.374Z,13.30
2018-07-20T19:26:43.488Z,12.73
2018-07-20T19:29:11.954Z,12.00
2018-07-20T19:31:40.258Z,12.63
2018-07-20T19:34:08.654Z,12.43
2018-07-20T19:36:36.959Z,12.50
2018-07-20T19:39:07.645Z,12.20
2018-07-20T19:41:35.934Z,12.20
2018-07-20T19:44:03.970Z,11.80
2018-07-20T19:46:32.142Z,13.70
2018-07-20T19:49:00.695Z,13.40
2018-07-20T19:51:28.853Z,12.60
2018-07-20T19:53:56.845Z,12.57
2018-07-20T19:56:24.986Z,11.33
2018-07-20T19:58:53.375Z,12.30
2018-07-20T20:01:21.298Z,12.27
2018-07-20T20:03:49.353Z,12.50
2018-07-20T20:06:17.389Z,12.03
2018-07-20T20:08:45.537Z,12.00
2018-07-20T20:11:13.734Z,12.13
2018-07-20T20:13:42.154Z,12.57
2018-07-20T20:16:10.422Z,11.80
2018-07-20T20:18:38.542Z,11.37
2018-07-20T20:21:06.723Z,11.80
2018-07-20T20:23:34.975Z,11.83
2018-07-20T20:26:03.260Z,11.43
2018-07-20T20:28:32.450Z,12.27
2018-07-20T20:31:00.284Z,11.30
2018-07-20T20:33:28.421Z,11.50
2018-07-20T20:35:56.913Z,11.30
2018-07-20T20:38:25.345Z,11.60
2018-07-20T20:40:54.110Z,11.43
2018-07-20T20:43:23.594Z,12.80
2018-07-20T20:45:51.977Z,11.30
2018-07-20T20:48:19.843Z,11.17
2018-07-20T20:50:48.248Z,11.40
2018-07-20T20:53:16.442Z,12.47
2018-07-20T20:55:44.626Z,11.03
2018-07-20T20:58:13.741Z,11.70
2018-07-20T21:00:42.289Z,11.97
2018-07-20T21:03:11.549Z,11.57
2018-07-20T21:05:39.921Z,12.37
2018-07-20T21:08:09.280Z,12.50
2018-07-20T21:10:38.706Z,13.00
2018-07-20T21:13:07.774Z,12.47
2018-07-20T21:15:35.632Z,11.40
2018-07-20T21:18:04.695Z,12.63
2018-07-20T21:20:33.261Z,12.23
2018-07-20T21:23:01.670Z,11.00
2018-07-20T21:25:30.134Z,12.40
2018-07-20T21:27:58.230Z,11.93
2018-07-20T21:30:27.030Z,11.70
2018-07-20T21:32:55.602Z,13.07
2018-07-20T21:35:24.068Z,11.67
2018-07-20T21:37:52.534Z,12.17
2018-07-20T21:40:20.935Z,12.13
2018-07-20T21:42:50.490Z,12.33
2018-07-20T21:45:18.580Z,11.93
2018-07-20T21:47:47.097Z,11.90
2018-07-20T21:50:15.178Z,11.80
2018-07-20T21:52:43.793Z,10.93
2018-07-20T21:55:12.462Z,10.73
2018-07-20T21:57:40.531Z,11.27
2018-07-20T22:00:16.713Z,10.67
2018-07-20T22:02:45.220Z,10.57
2018-07-20T22:05:13.903Z,10.00
2018-07-20T22:07:42.329Z,10.83
2018-07-20T22:10:11.003Z,11.60
2018-07-20T22:12:38.941Z,10.13
2018-07-20T22:15:07.930Z,10.77
2018-07-20T22:17:37.180Z,9.43
2018-07-20T22:20:07.277Z,10.97
2018-07-20T22:22:35.101Z,9.87
2018-07-20T22:25:04.128Z,10.13
2018-07-20T22:27:32.126Z,10.00
2018-07-20T22:30:00.020Z,10.30
2018-07-20T22:32:28.906Z,9.53
2018-07-20T22:34:57.366Z,9.83
2018-07-20T22:37:25.891Z,9.13
2018-07-20T22:39:56.014Z,8.43
2018-07-20T22:42:24.897Z,8.80
2018-07-20T22:44:53.423Z,9.27
2018-07-20T22:47:21.914Z,9.77
2018-07-20T22:49:50.083Z,10.30
2018-07-20T22:52:18.348Z,9.50
2018-07-20T22:54:47.308Z,9.33
2018-07-20T22:57:17.167Z,8.90
2018-07-20T22:59:46.438Z,9.00
2018-07-20T23:02:14.938Z,8.80
2018-07-20T23:04:43.898Z,8.80
2018-07-20T23:07:11.901Z,9.20
2018-07-20T23:09:40.426Z,8.90
2018-07-20T23:12:08.476Z,9.30
2018-07-20T23:14:37.147Z,8.20
2018-07-20T23:17:06.133Z,10.30
2018-07-20T23:19:34.115Z,8.90
2018-07-20T23:22:02.620Z,8.53
2018-07-20T23:24:30.762Z,9.30
2018-07-20T23:26:58.746Z,8.00
2018-07-20T23:29:28.119Z,9.53
2018-07-20T23:31:56.159Z,9.00
2018-07-20T23:34:24.659Z,7.93
2018-07-20T23:36:52.674Z,8.80
2018-07-20T23:39:20.711Z,9.60
2018-07-20T23:41:49.725Z,8.53
2018-07-20T23:44:18.224Z,8.67
2018-07-20T23:46:46.942Z,8.50
2018-07-20T23:49:14.926Z,8.10
2018-07-20T23:51:42.909Z,8.20
2018-07-20T23:54:11.784Z,8.33
2018-07-20T23:56:40.144Z,8.20
2018-07-20T23:59:08.709Z,7.57
